Time;durP1;ratioP1;P1;durP2;ratioP2;P2;SDS_P1;SDS_P2;PMS_P1;PMS_P2;Temp;Humidity;BMP_temperature;BMP_pressure;BME280_temperature;BME280_humidity;BME280_pressure;Samples;Min_cycle;Max_cycle;Signal;HPM_P1;HPM_P2
2022/01/23 00:04:51;;;;;;;67.53;27.83;;;;;;;4.93;100.00;103593.06;5272455;28;20032;-75
2022/01/23 00:07:22;;;;;;;69.07;29.75;;;;;;;4.90;100.00;103602.00;5273241;28;20446;-74
2022/01/23 00:09:53;;;;;;;62.85;26.90;;;;;;;4.88;100.00;103603.03;5286062;28;20027;-75
2022/01/23 00:12:26;;;;;;;64.97;27.85;;;;;;;4.87;100.00;103599.50;5276515;28;20458;-75
2022/01/23 00:17:45;;;;;;;68.57;28.48;;;;;;;4.87;100.00;103593.28;5265039;28;20043;-75
2022/01/23 00:20:15;;;;;;;67.50;28.05;;;;;;;4.85;100.00;103588.03;5285149;28;20024;-74
2022/01/23 00:22:50;;;;;;;66.35;27.00;;;;;;;4.86;100.00;103592.41;5285259;28;20024;-74
2022/01/23 00:31:00;;;;;;;71.97;28.15;;;;;;;4.83;100.00;103595.22;5285857;27;20027;-74
2022/01/23 00:33:31;;;;;;;72.78;29.33;;;;;;;4.82;100.00;103588.19;5272509;28;20557;-75
2022/01/23 00:36:03;;;;;;;81.43;31.30;;;;;;;4.85;100.00;103592.50;5271990;28;20028;-74
2022/01/23 00:38:33;;;;;;;62.97;27.90;;;;;;;4.84;100.00;103588.09;5271701;28;20030;-74
2022/01/23 00:41:04;;;;;;;61.05;27.52;;;;;;;4.84;100.00;103588.97;5284635;28;20031;-75
2022/01/23 00:43:36;;;;;;;71.25;29.33;;;;;;;4.82;100.00;103585.53;5272528;28;20041;-75
2022/01/23 00:46:09;;;;;;;73.05;29.42;;;;;;;4.81;100.00;103589.09;5272078;28;20477;-75
2022/01/23 00:48:51;;;;;;;64.43;29.77;;;;;;;4.81;100.00;103581.09;5274884;28;20012;-75
2022/01/23 00:51:26;;;;;;;69.97;28.60;;;;;;;4.81;100.00;103588.22;5278096;28;20032;-74
2022/01/23 00:53:58;;;;;;;73.57;28.30;;;;;;;4.81;100.00;103588.22;5277568;28;20497;-74
2022/01/23 00:56:29;;;;;;;70.55;29.65;;;;;;;4.79;100.00;103580.31;5264013;28;20031;-74
2022/01/23 00:59:00;;;;;;;63.75;28.17;;;;;;;4.79;100.00;103582.97;5266419;28;20024;-74
2022/01/23 01:01:32;;;;;;;69.45;28.83;;;;;;;4.77;100.00;103575.97;5275839;28;20419;-74
2022/01/23 01:04:02;;;;;;;65.15;28.17;;;;;;;4.74;100.00;103571.66;5267489;28;20050;-74
2022/01/23 01:06:33;;;;;;;74.45;29.38;;;;;;;4.73;100.00;103569.94;5274156;28;20400;-74
2022/01/23 01:09:06;;;;;;;71.50;29.08;;;;;;;4.76;100.00;103575.09;5277219;28;20062;-74
2022/01/23 01:17:06;;;;;;;72.43;29.13;;;;;;;4.76;100.00;103563.59;5284894;28;20388;-75
2022/01/23 01:31:13;;;;;;;80.72;33.00;;;;;;;4.72;100.00;103551.34;5269648;28;20499;-74
2022/01/23 01:33:50;;;;;;;72.78;29.75;;;;;;;4.72;100.00;103546.03;5284502;28;20023;-74
2022/01/23 01:36:45;;;;;;;76.38;31.48;;;;;;;4.72;100.00;103548.69;5284735;28;20484;-75
2022/01/23 01:39:19;;;;;;;75.75;31.15;;;;;;;4.71;100.00;103545.16;5263505;28;20436;-75
2022/01/23 01:41:51;;;;;;;79.13;32.35;;;;;;;4.71;100.00;103539.00;5265329;28;20055;-75
2022/01/23 01:44:22;;;;;;;71.65;30.65;;;;;;;4.71;100.00;103531.00;5273738;28;20032;-74
2022/01/23 01:46:54;;;;;;;78.50;31.75;;;;;;;4.69;100.00;103536.41;5276680;28;20031;-74
2022/01/23 01:49:30;;;;;;;73.43;32.00;;;;;;;4.70;100.00;103530.16;5263277;28;20114;-73
2022/01/23 01:52:03;;;;;;;80.68;30.40;;;;;;;4.70;100.00;103532.81;5270106;28;20027;-73
2022/01/23 01:54:34;;;;;;;78.20;31.85;;;;;;;4.67;100.00;103536.47;5280696;28;20392;-74
2022/01/23 01:57:08;;;;;;;72.65;30.08;;;;;;;4.69;100.00;103536.41;5271481;28;20020;-74
2022/01/23 02:08:28;;;;;;;84.82;32.38;;;;;;;4.72;100.00;103551.34;5284288;28;20061;-74
2022/01/23 02:11:17;;;;;;;72.70;29.73;;;;;;;4.72;100.00;103552.25;5270956;28;20035;-73
2022/01/23 02:13:55;;;;;;;68.75;28.98;;;;;;;4.71;100.00;103560.25;5285586;28;20366;-75
2022/01/23 02:25:12;;;;;;;77.55;33.10;;;;;;;4.63;100.00;103557.94;5270720;28;20023;-74
2022/01/23 02:50:41;;;;;;;68.63;28.88;;;;;;;4.53;100.00;103546.78;5269632;28;20028;-74
2022/01/23 02:53:33;;;;;;;77.40;29.17;;;;;;;4.52;100.00;103547.72;5267510;28;20031;-74
2022/01/23 02:56:18;;;;;;;76.60;30.88;;;;;;;4.53;100.00;103545.94;5266001;28;20078;-74
2022/01/23 03:01:57;;;;;;;78.13;30.15;;;;;;;4.51;100.00;103556.59;5269924;28;20024;-74
2022/01/23 03:04:29;;;;;;;79.43;31.98;;;;;;;4.51;100.00;103545.97;5268049;28;20055;-74
2022/01/23 03:12:15;;;;;;;68.75;28.17;;;;;;;4.47;100.00;103538.19;5270823;28;20376;-73
2022/01/23 03:14:55;;;;;;;66.55;28.10;;;;;;;4.45;100.00;103532.06;5275101;28;20038;-73
2022/01/23 03:33:59;;;;;;;79.70;34.03;;;;;;;4.48;100.00;103518.66;5265233;28;20085;-75
2022/01/23 03:36:29;;;;;;;87.45;32.28;;;;;;;4.45;100.00;103527.63;5272942;28;20038;-74
2022/01/23 03:39:00;;;;;;;85.45;32.67;;;;;;;4.46;100.00;103526.69;5287588;28;20019;-74
2022/01/23 03:41:30;;;;;;;81.95;30.98;;;;;;;4.46;100.00;103544.44;5279184;28;20520;-75
2022/01/23 03:44:04;;;;;;;89.80;31.17;;;;;;;4.46;100.00;103536.44;5281212;28;20485;-74
2022/01/23 03:52:14;;;;;;;86.68;33.03;;;;;;;4.44;100.00;103538.31;5265813;28;20028;-74
2022/01/23 03:54:46;;;;;;;89.47;33.58;;;;;;;4.44;100.00;103539.19;5265457;28;20027;-74
2022/01/23 03:57:17;;;;;;;83.18;32.53;;;;;;;4.44;100.00;103541.84;5265772;28;20038;-73
2022/01/23 03:59:47;;;;;;;90.55;32.65;;;;;;;4.45;100.00;103559.50;5265698;28;20042;-73
2022/01/23 04:02:18;;;;;;;86.53;32.53;;;;;;;4.47;100.00;103548.81;5271354;28;20023;-73
2022/01/23 04:04:48;;;;;;;86.10;33.63;;;;;;;4.47;100.00;103551.47;5286558;28;20024;-73
2022/01/23 04:07:23;;;;;;;92.38;32.83;;;;;;;4.43;100.00;103545.44;5286653;28;20402;-73
2022/01/23 04:09:54;;;;;;;;;;;;;;;4.40;100.00;103548.19;5286930;28;20042;-74
2022/01/23 04:15:34;;;;;;;85.03;31.77;;;;;;;4.36;100.00;103550.09;5269765;28;20460;-74
2022/01/23 04:18:54;;;;;;;82.97;32.17;;;;;;;4.37;100.00;103551.84;5272648;28;20073;-74
2022/01/23 04:35:39;;;;;;;82.70;31.33;;;;;;;4.38;100.00;103548.25;5273679;28;20390;-74
2022/01/23 05:00:18;;;;;;;78.45;29.50;;;;;;;4.33;100.00;103550.25;5278256;28;20028;-73
2022/01/23 05:05:37;;;;;;;88.40;31.30;;;;;;;4.23;100.00;103559.50;5279601;28;20472;-73
2022/01/23 05:08:09;;;;;;;85.55;30.13;;;;;;;4.24;100.00;103555.91;5272195;28;20030;-73
2022/01/23 05:10:39;;;;;;;92.50;34.17;;;;;;;4.25;100.00;103551.44;5273960;28;20052;-73
2022/01/23 05:13:10;;;;;;;94.18;33.25;;;;;;;4.27;100.00;103555.81;5278960;28;20425;-73
2022/01/23 05:15:40;;;;;;;83.75;31.27;;;;;;;4.29;100.00;103558.38;5275171;28;20027;-73
2022/01/23 05:18:11;;;;;;;89.05;33.85;;;;;;;4.30;100.00;103555.66;5277957;28;20031;-74
2022/01/23 05:20:44;;;;;;;90.93;33.67;;;;;;;4.29;100.00;103563.69;5276661;28;20223;-74
2022/01/23 05:23:15;;;;;;;86.55;33.15;;;;;;;4.28;100.00;103557.53;5288282;28;20038;-75
2022/01/23 05:25:45;;;;;;;93.07;33.67;;;;;;;4.30;100.00;103554.78;5273717;28;20020;-74
2022/01/23 05:28:16;;;;;;;94.60;34.30;;;;;;;4.31;100.00;103552.06;5264172;28;20389;-74
2022/01/23 05:30:48;;;;;;;82.95;31.20;;;;;;;4.29;100.00;103548.63;5266954;28;20024;-74
2022/01/23 05:33:18;;;;;;;93.93;33.30;;;;;;;4.30;100.00;103553.00;5266829;28;20553;-74
2022/01/23 05:35:48;;;;;;;78.63;31.88;;;;;;;4.28;100.00;103551.34;5271660;28;20111;-74
2022/01/23 05:38:19;;;;;;;84.20;32.33;;;;;;;4.29;100.00;103548.63;5278855;28;20189;-74
2022/01/23 05:40:56;;;;;;;79.38;30.23;;;;;;;4.30;100.00;103546.81;5272914;27;20439;-73
2022/01/23 05:43:27;;;;;;;86.88;31.73;;;;;;;4.34;100.00;103545.78;5277755;28;20111;-73
2022/01/23 05:45:58;;;;;;;85.68;31.92;;;;;;;4.37;100.00;103543.88;5274453;28;20152;-74
2022/01/23 05:48:28;;;;;;;86.40;32.60;;;;;;;4.37;100.00;103549.19;5276147;28;20068;-73
2022/01/23 05:50:58;;;;;;;92.53;32.78;;;;;;;4.43;100.00;103550.75;5276852;28;20080;-74
2022/01/23 05:53:29;;;;;;;85.22;33.60;;;;;;;4.45;100.00;103551.53;5273405;28;20019;-73
2022/01/23 05:55:59;;;;;;;93.13;33.65;;;;;;;4.39;100.00;103550.00;5277019;28;20183;-72
2022/01/23 05:58:30;;;;;;;92.03;32.83;;;;;;;4.37;100.00;103540.38;5273783;28;20031;-71
2022/01/23 06:01:00;;;;;;;83.32;31.58;;;;;;;4.37;100.00;103540.38;5277984;28;20031;-72
2022/01/23 06:03:31;;;;;;;81.50;31.40;;;;;;;4.35;100.00;103544.84;5273024;28;20473;-71
2022/01/23 06:06:02;;;;;;;84.88;30.35;;;;;;;4.31;100.00;103548.56;5279221;28;20058;-72
2022/01/23 06:08:32;;;;;;;86.03;29.88;;;;;;;4.28;100.00;103546.91;5274299;28;20020;-71
2022/01/23 06:11:03;;;;;;;129.52;53.65;;;;;;;4.32;100.00;103534.38;5270862;28;20115;-71
2022/01/23 06:13:34;;;;;;;82.85;32.45;;;;;;;4.31;100.00;103545.91;5270550;28;20111;-71
2022/01/23 06:16:05;;;;;;;84.35;31.48;;;;;;;4.29;100.00;103551.28;5276422;28;20059;-71
2022/01/23 06:18:36;;;;;;;90.53;33.58;;;;;;;4.26;100.00;103558.50;5276793;28;20027;-72
2022/01/23 06:21:07;;;;;;;88.22;31.70;;;;;;;4.27;100.00;103553.16;5279126;28;20020;-71
2022/01/23 06:23:38;;;;;;;84.70;31.25;;;;;;;4.29;100.00;103547.75;5273171;28;20024;-72
2022/01/23 06:26:08;;;;;;;93.10;33.33;;;;;;;4.30;100.00;103546.81;5274998;28;20043;-71
2022/01/23 06:28:44;;;;;;;90.63;32.40;;;;;;;4.28;100.00;103554.00;5282287;28;20489;-72
2022/01/23 06:31:14;;;;;;;97.65;33.13;;;;;;;4.28;100.00;103557.53;5268737;28;20063;-73
2022/01/23 06:33:45;;;;;;;80.00;31.10;;;;;;;4.23;100.00;103563.94;5282402;28;20028;-72
2022/01/23 06:36:15;;;;;;;90.25;33.25;;;;;;;4.24;100.00;103558.56;5272583;28;20102;-73
2022/01/23 06:38:46;;;;;;;90.65;32.30;;;;;;;4.24;100.00;103558.56;5274687;28;20019;-72
2022/01/23 06:41:16;;;;;;;85.10;32.60;;;;;;;4.25;100.00;103557.63;5261952;28;20079;-72
2022/01/23 06:43:47;;;;;;;87.75;32.90;;;;;;;4.29;100.00;103556.59;5275857;27;20622;-72
2022/01/23 06:46:18;;;;;;;87.32;31.10;;;;;;;4.29;100.00;103558.38;5293884;27;20023;-72
2022/01/23 06:48:49;;;;;;;90.80;32.58;;;;;;;4.28;100.00;103565.50;5264011;28;20043;-72
2022/01/23 06:51:19;;;;;;;92.90;32.50;;;;;;;4.26;100.00;103572.66;5277670;28;20357;-72
2022/01/23 06:53:51;;;;;;;92.60;34.40;;;;;;;4.24;100.00;103570.97;5279246;28;20016;-72
2022/01/23 06:56:22;;;;;;;85.03;31.15;;;;;;;4.22;100.00;103571.06;5279610;28;20036;-72
2022/01/23 06:58:54;;;;;;;85.03;30.88;;;;;;;4.26;100.00;103585.06;5285959;28;20143;-72
2022/01/23 07:01:24;;;;;;;101.07;33.65;;;;;;;4.30;100.00;103579.59;5268922;27;20442;-72
2022/01/23 07:03:55;;;;;;;89.43;31.48;;;;;;;4.29;100.00;103584.97;5264917;28;20244;-72
2022/01/23 07:06:25;;;;;;;86.05;31.63;;;;;;;4.25;100.00;103589.53;5268752;28;20046;-72
2022/01/23 07:08:55;;;;;;;90.57;32.03;;;;;;;4.23;100.00;103596.69;5275201;27;20055;-72
2022/01/23 07:11:26;;;;;;;85.68;31.23;;;;;;;4.24;100.00;103603.75;5283686;28;20436;-72
2022/01/23 07:13:56;;;;;;;91.18;33.20;;;;;;;4.25;100.00;103607.25;5285096;28;20112;-72
2022/01/23 07:16:27;;;;;;;90.50;33.42;;;;;;;4.26;100.00;103611.66;5270495;28;20020;-72
2022/01/23 07:18:57;;;;;;;93.22;34.28;;;;;;;4.27;100.00;103606.28;5285979;28;20058;-72
2022/01/23 07:21:28;;;;;;;87.10;31.70;;;;;;;4.27;100.00;103603.63;5282262;28;20526;-73
2022/01/23 07:23:58;;;;;;;100.05;30.42;;;;;;;4.24;100.00;103605.53;5271991;28;20476;-72
2022/01/23 07:26:30;;;;;;;96.80;32.60;;;;;;;4.27;100.00;103608.94;5274057;28;20015;-72
2022/01/23 07:29:02;;;;;;;92.53;33.78;;;;;;;4.27;100.00;103613.41;5271767;28;20096;-72
2022/01/23 07:34:06;;;;;;;97.22;32.85;;;;;;;4.29;100.00;103607.09;5285292;27;20431;-72
2022/01/23 07:36:38;;;;;;;101.45;34.72;;;;;;;4.28;100.00;103616.00;5275236;28;20031;-72
2022/01/23 07:39:08;;;;;;;92.97;33.80;;;;;;;4.27;100.00;103614.25;5285631;28;20024;-73
2022/01/23 07:41:39;;;;;;;89.75;32.47;;;;;;;4.30;100.00;103610.59;5272188;28;20018;-73
2022/01/23 07:44:09;;;;;;;104.78;35.25;;;;;;;4.33;100.00;103614.03;5285247;28;20107;-72
2022/01/23 07:46:40;;;;;;;92.63;32.42;;;;;;;4.31;100.00;103615.00;5271666;28;20023;-72
2022/01/23 07:49:11;;;;;;;97.53;31.90;;;;;;;4.29;100.00;103611.53;5285486;28;20041;-72
2022/01/23 07:51:41;;;;;;;85.88;32.53;;;;;;;4.28;100.00;103617.78;5284507;28;20023;-72
2022/01/23 07:54:11;;;;;;;86.60;32.85;;;;;;;4.23;100.00;103620.63;5284084;28;20059;-72
2022/01/23 07:56:42;;;;;;;92.65;31.48;;;;;;;4.23;100.00;103611.78;5271446;28;20034;-72
2022/01/23 07:59:13;;;;;;;91.72;33.58;;;;;;;4.23;100.00;103609.97;5284919;28;20408;-73
2022/01/23 08:01:43;;;;;;;93.72;33.97;;;;;;;4.22;100.00;103625.97;5270799;28;20085;-73
2022/01/23 08:04:14;;;;;;;98.30;32.83;;;;;;;4.25;100.00;103623.19;5284410;28;20024;-72
2022/01/23 08:06:46;;;;;;;106.05;35.85;;;;;;;4.26;100.00;103631.09;5271209;28;20027;-72
2022/01/23 08:09:17;;;;;;;96.68;33.97;;;;;;;4.28;100.00;103631.94;5285198;28;20098;-72
2022/01/23 08:11:47;;;;;;;94.18;31.45;;;;;;;4.30;100.00;103631.88;5284949;28;20111;-73
2022/01/23 08:14:19;;;;;;;95.43;33.67;;;;;;;4.31;100.00;103629.16;5270464;28;20031;-72
2022/01/23 08:16:49;;;;;;;87.50;30.58;;;;;;;4.30;100.00;103642.50;5284595;28;20030;-73
2022/01/23 08:19:20;;;;;;;94.63;33.28;;;;;;;4.29;100.00;103646.09;5280896;28;20028;-72
2022/01/23 08:21:50;;;;;;;99.70;33.20;;;;;;;4.23;100.00;103636.56;5273942;28;20110;-72
2022/01/23 08:24:21;;;;;;;97.60;35.47;;;;;;;4.22;100.00;103639.25;5283140;28;20080;-72
2022/01/23 08:26:51;;;;;;;97.50;33.90;;;;;;;4.21;100.00;103643.69;5263958;28;20016;-72
2022/01/23 08:29:22;;;;;;;94.78;32.47;;;;;;;4.24;100.00;103643.59;5278769;27;20078;-72
2022/01/23 08:31:52;;;;;;;89.97;32.17;;;;;;;4.22;100.00;103642.81;5282837;28;20110;-72
2022/01/23 08:34:23;;;;;;;100.00;33.70;;;;;;;4.23;100.00;103648.97;5285253;28;20384;-72
2022/01/23 08:36:55;;;;;;;96.13;35.08;;;;;;;4.26;100.00;103646.19;5284713;27;20028;-73
2022/01/23 08:39:26;;;;;;;96.15;32.67;;;;;;;4.27;100.00;103651.47;5263365;28;20027;-74
2022/01/23 08:41:57;;;;;;;100.30;35.72;;;;;;;4.29;100.00;103644.28;5262904;28;20538;-73
2022/01/23 08:44:29;;;;;;;98.05;34.17;;;;;;;4.32;100.00;103638.88;5271570;28;20031;-73
2022/01/23 08:47:00;;;;;;;90.57;32.88;;;;;;;4.33;100.00;103645.91;5284374;28;20019;-73
2022/01/23 08:49:31;;;;;;;83.57;30.95;;;;;;;4.31;100.00;103646.88;5274294;28;20413;-72
2022/01/23 08:52:02;;;;;;;93.18;35.35;;;;;;;4.33;100.00;103651.22;5266957;28;20026;-73
2022/01/23 08:54:33;;;;;;;98.50;34.45;;;;;;;4.34;100.00;103650.31;5272877;28;20032;-72
2022/01/23 08:57:04;;;;;;;94.50;34.80;;;;;;;4.35;100.00;103651.16;5268507;28;20492;-72
2022/01/23 08:59:34;;;;;;;95.63;34.85;;;;;;;4.35;100.00;103657.34;5283741;27;20031;-73
2022/01/23 09:02:05;;;;;;;93.18;34.20;;;;;;;4.34;100.00;103652.97;5269680;28;20031;-73
2022/01/23 09:04:36;;;;;;;103.70;35.25;;;;;;;4.38;100.00;103659.03;5282180;28;20081;-72
2022/01/23 09:07:06;;;;;;;97.63;34.97;;;;;;;4.40;100.00;103663.34;5270185;28;20397;-72
2022/01/23 09:09:39;;;;;;;99.00;36.30;;;;;;;4.43;100.00;103656.22;5269498;28;20111;-72
2022/01/23 09:12:40;;;;;;;107.35;37.47;;;;;;;4.50;100.00;103652.38;5273791;28;20122;-72
2022/01/23 09:15:11;;;;;;;103.40;36.53;;;;;;;4.54;100.00;103654.88;5283099;28;20469;-73
2022/01/23 09:17:42;;;;;;;91.03;32.95;;;;;;;4.56;100.00;103660.13;5282909;28;20028;-73
2022/01/23 09:20:12;;;;;;;106.47;37.55;;;;;;;4.60;100.00;103651.09;5283219;28;20396;-73
2022/01/23 09:22:42;;;;;;;98.25;35.67;;;;;;;4.62;100.00;103657.25;5279784;28;20103;-73
2022/01/23 09:25:13;;;;;;;99.45;35.72;;;;;;;4.65;100.00;103654.44;5273729;28;20055;-73
2022/01/23 09:27:44;;;;;;;109.45;36.75;;;;;;;4.66;100.00;103658.84;5267350;28;20019;-73
2022/01/23 09:33:00;;;;;;;101.97;38.78;;;;;;;4.67;100.00;103660.59;5261320;28;20481;-73
2022/01/23 09:35:31;;;;;;;111.30;36.78;;;;;;;4.71;100.00;103663.97;5277382;28;20035;-73
2022/01/23 09:38:01;;;;;;;103.85;36.83;;;;;;;4.75;100.00;103663.81;5282924;28;20430;-73
2022/01/23 09:40:32;;;;;;;96.53;36.75;;;;;;;4.77;100.00;103663.72;5282812;28;20059;-73
2022/01/23 09:43:07;;;;;;;97.38;35.22;;;;;;;4.77;100.00;103658.41;5273411;27;20036;-73
2022/01/23 09:45:38;;;;;;;97.65;36.03;;;;;;;4.81;100.00;103671.53;5266300;28;20019;-72
2022/01/23 09:48:09;;;;;;;101.90;37.58;;;;;;;4.81;100.00;103673.34;5269765;28;20074;-73
2022/01/23 09:50:42;;;;;;;96.45;36.58;;;;;;;4.80;100.00;103677.78;5276074;28;20324;-73
2022/01/23 09:53:14;;;;;;;100.85;35.80;;;;;;;4.83;100.00;103680.34;5275979;28;20397;-73
2022/01/23 09:55:46;;;;;;;103.80;37.55;;;;;;;4.85;100.00;103681.13;5282718;28;20023;-72
2022/01/23 09:58:17;;;;;;;93.88;34.22;;;;;;;4.87;100.00;103673.97;5280160;28;20028;-73
2022/01/23 10:00:48;;;;;;;90.57;35.55;;;;;;;4.88;100.00;103675.72;5270492;28;20371;-72
2022/01/23 10:03:19;;;;;;;96.57;34.40;;;;;;;4.90;100.00;103668.53;5282771;28;20383;-73
2022/01/23 10:05:53;;;;;;;93.07;34.42;;;;;;;4.93;100.00;103662.22;5285246;27;20181;-73
2022/01/23 10:08:28;;;;;;;95.97;35.80;;;;;;;4.94;100.00;103667.47;5275922;27;20027;-73
2022/01/23 10:10:59;;;;;;;97.43;36.42;;;;;;;4.94;100.00;103666.63;5278967;28;20511;-73
2022/01/23 10:13:29;;;;;;;95.07;36.33;;;;;;;4.98;100.00;103667.38;5281368;28;20110;-73
2022/01/23 10:16:00;;;;;;;95.40;37.47;;;;;;;4.99;100.00;103669.97;5285399;27;20030;-72
2022/01/23 10:18:31;;;;;;;103.38;34.92;;;;;;;5.00;100.00;103670.81;5292126;27;20049;-73
2022/01/23 10:21:02;;;;;;;91.82;35.45;;;;;;;4.94;100.00;103674.59;5295810;27;20027;-72
2022/01/23 10:23:33;;;;;;;98.43;35.63;;;;;;;5.00;100.00;103668.16;5299647;27;20082;-72
2022/01/23 10:26:05;;;;;;;97.95;37.38;;;;;;;5.02;100.00;103675.16;5296238;27;20418;-72
2022/01/23 10:28:36;;;;;;;108.40;38.72;;;;;;;5.06;100.00;103667.91;5296270;27;20019;-72
2022/01/23 10:31:06;;;;;;;95.00;36.63;;;;;;;5.03;100.00;103663.59;5291481;27;20101;-73
2022/01/23 10:33:38;;;;;;;102.15;37.78;;;;;;;5.09;100.00;103668.66;5295958;27;20483;-73
2022/01/23 10:36:11;;;;;;;92.63;35.47;;;;;;;5.12;100.00;103667.66;5278120;28;20700;-73
2022/01/23 10:39:03;;;;;;;87.47;34.25;;;;;;;5.13;100.00;103670.28;5282965;28;20106;-73
2022/01/23 10:50:15;;;;;;;84.20;34.05;;;;;;;5.19;100.00;103664.69;5268320;28;20024;-73
2022/01/23 10:52:48;;;;;;;84.43;33.83;;;;;;;5.24;100.00;103676.97;5275963;28;20085;-73
2022/01/23 10:55:19;;;;;;;95.78;33.78;;;;;;;5.25;100.00;103668.03;5272463;28;20019;-72
2022/01/23 10:57:54;;;;;;;96.25;35.47;;;;;;;5.24;100.00;103661.84;5286237;28;20102;-73
2022/01/23 11:00:41;;;;;;;91.23;37.33;;;;;;;5.27;100.00;103666.16;5271903;28;20390;-73
2022/01/23 11:03:14;;;;;;;99.35;36.65;;;;;;;5.30;100.00;103658.94;5271707;28;20039;-73
2022/01/23 11:05:48;;;;;;;101.18;37.30;;;;;;;5.33;100.00;103660.63;5275366;28;20529;-73
2022/01/23 11:08:21;;;;;;;86.18;35.33;;;;;;;5.35;100.00;103654.28;5283350;28;20028;-73
2022/01/23 11:10:55;;;;;;;99.65;36.38;;;;;;;5.36;100.00;103657.81;5272772;28;20051;-73
2022/01/23 11:19:26;;;;;;;97.78;36.10;;;;;;;5.41;100.00;103648.69;5267799;28;20039;-72
2022/01/23 11:21:59;;;;;;;87.88;34.40;;;;;;;5.45;100.00;103658.28;5284926;28;20020;-73
2022/01/23 11:24:49;;;;;;;89.07;33.72;;;;;;;5.46;100.00;103646.69;5268283;28;20299;-73
2022/01/23 11:27:22;;;;;;;87.10;33.78;;;;;;;5.48;100.00;103644.00;5263676;28;20030;-73
2022/01/23 11:29:54;;;;;;;97.32;36.78;;;;;;;5.48;100.00;103640.47;5273729;28;20020;-73
2022/01/23 11:32:29;;;;;;;88.50;34.42;;;;;;;5.49;100.00;103640.41;5281365;28;20031;-73
2022/01/23 11:35:05;;;;;;;92.60;34.58;;;;;;;5.50;100.00;103638.59;5275455;28;20019;-73
2022/01/23 11:37:45;;;;;;;96.03;35.75;;;;;;;5.48;100.00;103633.34;5283533;28;20098;-73
2022/01/23 11:54:03;;;;;;;96.50;34.33;;;;;;;5.61;100.00;103621.22;5271396;28;20098;-74
2022/01/23 11:56:39;;;;;;;97.95;38.65;;;;;;;5.63;100.00;103621.16;5282765;27;20030;-74
2022/01/23 11:59:10;;;;;;;99.82;36.85;;;;;;;5.64;100.00;103623.75;5273089;28;20096;-73
2022/01/23 12:01:42;;;;;;;86.82;35.25;;;;;;;5.64;100.00;103620.22;5283614;28;20473;-74
2022/01/23 12:04:19;;;;;;;89.47;35.22;;;;;;;5.57;100.00;103616.97;5284500;28;20031;-74
2022/01/23 12:07:09;;;;;;;93.78;38.35;;;;;;;5.60;100.00;103611.50;5279504;28;20447;-74
2022/01/23 12:09:43;;;;;;;102.57;37.40;;;;;;;5.61;100.00;103615.03;5276269;28;20030;-73
2022/01/23 12:18:30;;;;;;;84.30;33.90;;;;;;;5.65;100.00;103606.84;5278672;28;20031;-73
2022/01/23 12:21:00;;;;;;;93.30;34.92;;;;;;;5.68;100.00;103600.53;5278116;28;20019;-73
2022/01/23 12:24:03;;;;;;;95.63;34.33;;;;;;;5.69;100.00;103605.78;5263463;28;20165;-74
2022/01/23 12:26:34;;;;;;;85.28;33.92;;;;;;;5.74;100.00;103602.06;5270416;28;20008;-74
2022/01/23 12:29:19;;;;;;;86.13;34.58;;;;;;;5.76;100.00;103600.16;5286179;27;20378;-74
2022/01/23 12:32:31;;;;;;;93.68;36.88;;;;;;;5.79;100.00;103594.72;5285940;27;20412;-73
2022/01/23 12:35:06;;;;;;;87.05;34.95;;;;;;;5.77;100.00;103583.25;5292162;27;20471;-73
2022/01/23 12:37:56;;;;;;;93.80;35.92;;;;;;;5.76;100.00;103592.19;5290524;27;20435;-74
2022/01/23 12:40:31;;;;;;;94.35;36.25;;;;;;;5.77;100.00;103591.25;5289614;27;20027;-73
2022/01/23 12:43:30;;;;;;;94.72;37.15;;;;;;;5.77;100.00;103584.13;5291556;27;20026;-74
2022/01/23 12:46:05;;;;;;;101.30;38.40;;;;;;;6.02;100.00;103581.25;5288236;27;20030;-73
2022/01/23 12:48:36;;;;;;;97.35;39.10;;;;;;;6.05;100.00;103585.59;5293948;27;20023;-73
2022/01/23 12:51:28;;;;;;;90.13;35.95;;;;;;;6.04;100.00;103571.41;5283304;27;20031;-73
2022/01/23 12:53:58;;;;;;;82.85;34.75;;;;;;;6.09;100.00;103576.50;5288416;27;20032;-73
2022/01/23 12:56:41;;;;;;;88.20;37.13;;;;;;;6.11;100.00;103567.50;5287073;27;20400;-73
2022/01/23 12:59:22;;;;;;;81.10;34.63;;;;;;;6.13;100.00;103564.78;5291181;27;20027;-73
2022/01/23 13:02:00;;;;;;;93.10;36.92;;;;;;;6.15;100.00;103561.09;5283225;27;20078;-73
2022/01/23 13:04:47;;;;;;;86.97;34.85;;;;;;;6.18;100.00;103560.97;5280736;27;20023;-71
2022/01/23 13:07:27;;;;;;;94.50;34.45;;;;;;;6.20;100.00;103559.09;5283543;27;20011;-72
2022/01/23 13:13:22;;;;;;;85.90;34.63;;;;;;;6.20;100.00;103556.41;5290712;27;20216;-72
2022/01/23 13:32:38;;;;;;;74.45;29.85;;;;;;;6.26;100.00;103539.25;5294489;27;20118;-71
2022/01/23 13:35:13;;;;;;;79.53;31.33;;;;;;;6.28;100.00;103536.53;5295359;27;20019;-71
2022/01/23 13:37:49;;;;;;;78.38;30.15;;;;;;;6.31;100.00;103541.72;5290770;27;20019;-72
2022/01/23 13:40:26;;;;;;;81.40;30.90;;;;;;;6.35;100.00;103533.50;5285641;27;20023;-72
2022/01/23 13:59:53;;;;;;;72.93;29.45;;;;;;;6.45;100.00;103536.59;5290261;28;20015;-71
2022/01/23 14:02:42;;;;;;;78.88;32.85;;;;;;;6.46;100.00;103538.31;5271739;28;20028;-71
2022/01/23 14:05:17;;;;;;;78.53;32.25;;;;;;;6.45;100.00;103537.44;5262533;28;20072;-71
2022/01/23 14:07:51;;;;;;;78.38;31.83;;;;;;;6.42;100.00;103532.25;5264833;28;20095;-72
2022/01/23 14:10:31;;;;;;;72.28;29.55;;;;;;;6.44;100.00;103534.88;5281092;28;20464;-72
2022/01/23 14:13:19;;;;;;;76.22;29.70;;;;;;;6.41;100.00;103530.53;5280374;28;20024;-72
2022/01/23 14:15:52;;;;;;;71.20;30.67;;;;;;;6.42;100.00;103532.25;5269717;28;20547;-72
2022/01/23 14:18:26;;;;;;;73.18;31.92;;;;;;;6.41;100.00;103527.00;5263261;28;20031;-71
2022/01/23 14:21:02;;;;;;;70.30;29.45;;;;;;;6.45;100.00;103524.13;5276349;28;20124;-72
2022/01/23 14:23:34;;;;;;;67.43;28.60;;;;;;;6.41;100.00;103519.00;5271677;28;20396;-72
2022/01/23 14:26:09;;;;;;;67.10;28.90;;;;;;;6.39;100.00;103520.91;5266321;28;20023;-72
2022/01/23 14:28:45;;;;;;;72.93;28.70;;;;;;;6.39;100.00;103516.41;5282519;28;20165;-72
2022/01/23 14:31:19;;;;;;;;;;;;;;;6.39;100.00;103521.75;5269609;28;20369;-72
2022/01/23 14:33:56;;;;;;;70.78;27.60;;;;;;;6.35;100.00;103514.84;5280139;28;19912;-72
2022/01/23 14:36:30;;;;;;;66.18;28.45;;;;;;;6.36;100.00;103526.38;5271289;28;20023;-72
2022/01/23 14:39:06;;;;;;;71.50;29.58;;;;;;;6.34;100.00;103523.78;5282471;28;20342;-72
2022/01/23 14:41:38;;;;;;;;;;;;;;;6.32;100.00;103525.63;5282204;28;20020;-71
2022/01/23 14:44:27;;;;;;;69.65;28.15;;;;;;;6.31;100.00;103521.25;5268365;28;19907;-72
2022/01/23 14:46:57;;;;;;;69.20;30.13;;;;;;;6.31;100.00;103523.91;5282178;28;20088;-72
2022/01/23 14:49:30;;;;;;;67.18;28.13;;;;;;;6.29;100.00;103525.81;5282171;28;20054;-72
2022/01/23 14:52:02;;;;;;;73.65;28.13;;;;;;;6.28;100.00;103526.75;5282152;28;20416;-71
2022/01/23 14:54:33;;;;;;;73.55;30.05;;;;;;;6.26;100.00;103528.59;5281909;28;20020;-72
2022/01/23 14:57:06;;;;;;;75.00;29.85;;;;;;;6.23;100.00;103524.28;5267443;28;20176;-72
2022/01/23 14:59:38;;;;;;;70.15;28.40;;;;;;;6.20;100.00;103527.09;5268547;28;20021;-72
2022/01/23 15:02:08;;;;;;;70.63;29.27;;;;;;;6.20;100.00;103521.75;5269273;28;20027;-72
2022/01/23 15:04:43;;;;;;;72.25;27.98;;;;;;;6.21;100.00;103523.47;5272768;28;20076;-71
2022/01/23 15:07:15;;;;;;;70.75;29.33;;;;;;;6.19;100.00;103524.50;5285969;28;20024;-71
2022/01/23 15:09:48;;;;;;;69.45;28.60;;;;;;;6.14;100.00;103516.72;5268756;28;20020;-74
2022/01/23 15:12:19;;;;;;;65.25;28.08;;;;;;;6.15;100.00;103522.91;5275985;28;20031;-74
2022/01/23 15:14:49;;;;;;;73.40;28.77;;;;;;;6.15;100.00;103528.25;5285812;27;20024;-72
2022/01/23 15:17:20;;;;;;;73.47;28.42;;;;;;;6.13;100.00;103522.13;5272534;28;20032;-72